Time;durP1;ratioP1;P1;durP2;ratioP2;P2;SDS_P1;SDS_P2;PMS_P1;PMS_P2;Temp;Humidity;BMP_temperature;BMP_pressure;BME280_temperature;BME280_humidity;BME280_pressure;Samples;Min_cycle;Max_cycle;Signal;HPM_P1;HPM_P2
2022/04/03 00:01:07;;;;;;;3.13;2.80;;;;;;;0.05;65.08;101454.00;4968213;28;20883;-62
2022/04/03 00:03:35;;;;;;;3.53;2.70;;;;;;;0.12;65.08;101455.22;4963275;28;20242;-62
2022/04/03 00:06:01;;;;;;;3.37;2.87;;;;;;;0.07;64.84;101455.00;4970323;28;20242;-62
2022/04/03 00:08:28;;;;;;;4.13;2.67;;;;;;;0.12;65.33;101456.09;4967506;28;20241;-62
2022/04/03 00:10:55;;;;;;;3.07;2.60;;;;;;;0.08;65.93;101455.88;4966699;28;20241;-62
2022/04/03 00:13:21;;;;;;;3.00;2.50;;;;;;;0.07;65.83;101454.06;4967563;28;20289;-61
2022/04/03 00:15:48;;;;;;;3.10;2.50;;;;;;;0.03;65.75;101449.56;4967094;28;20314;-61
2022/04/03 00:18:16;;;;;;;2.63;2.33;;;;;;;-0.09;66.03;101449.81;4962017;28;20234;-61
2022/04/03 00:20:43;;;;;;;5.37;3.17;;;;;;;-0.16;66.79;101453.75;4967137;28;20244;-61
2022/04/03 00:23:09;;;;;;;4.13;2.80;;;;;;;-0.15;67.17;101449.47;4967330;28;20238;-60
2022/04/03 00:25:37;;;;;;;5.73;3.17;;;;;;;-0.20;66.95;101446.66;4967457;28;20264;-61
2022/04/03 00:28:03;;;;;;;7.03;3.13;;;;;;;-0.17;67.25;101446.81;4967554;28;20236;-60
2022/04/03 00:30:30;;;;;;;3.87;3.40;;;;;;;-0.21;67.38;101437.16;4967911;28;20512;-61
2022/04/03 00:32:56;;;;;;;5.20;2.97;;;;;;;-0.22;67.87;101445.69;4967311;28;20704;-62
2022/04/03 00:35:24;;;;;;;5.83;3.27;;;;;;;-0.16;67.68;101448.59;4965779;28;20230;-61
2022/04/03 00:37:51;;;;;;;6.67;4.07;;;;;;;-0.18;67.65;101445.03;4966717;28;20320;-61
2022/04/03 00:40:20;;;;;;;4.87;3.67;;;;;;;-0.21;68.04;101437.16;4971124;28;20258;-62
2022/04/03 00:42:46;;;;;;;5.17;4.17;;;;;;;-0.21;68.15;101439.72;4962438;28;20242;-62
2022/04/03 00:45:13;;;;;;;5.47;3.80;;;;;;;-0.23;68.64;101440.44;4965416;28;20226;-61
2022/04/03 00:47:40;;;;;;;3.57;2.77;;;;;;;-0.24;68.60;101444.72;4964954;28;20326;-63
2022/04/03 00:50:06;;;;;;;3.63;3.13;;;;;;;-0.28;68.38;101442.75;4965981;28;20252;-61
2022/04/03 00:52:35;;;;;;;3.90;2.70;;;;;;;-0.25;69.32;101442.94;4966847;28;20289;-61
2022/04/03 00:55:01;;;;;;;5.50;3.20;;;;;;;-0.20;69.04;101454.41;4967016;28;20234;-61
2022/04/03 00:57:28;;;;;;;3.57;2.70;;;;;;;-0.06;68.67;101445.69;4962698;28;20458;-61
2022/04/03 00:59:55;;;;;;;4.50;2.83;;;;;;;-0.12;68.35;101440.19;4959491;28;20237;-62
2022/04/03 01:02:22;;;;;;;3.33;2.40;;;;;;;-0.20;69.04;101444.06;4966371;28;20234;-62
2022/04/03 01:04:49;;;;;;;2.97;2.70;;;;;;;-0.16;68.88;101443.44;4950383;28;20247;-60
2022/04/03 01:07:15;;;;;;;4.73;2.93;;;;;;;-0.16;68.90;101448.59;4965358;28;20231;-61
2022/04/03 01:09:44;;;;;;;3.17;2.43;;;;;;;-0.27;69.27;101450.59;4959034;28;20253;-61
2022/04/03 01:12:11;;;;;;;3.20;2.87;;;;;;;-0.30;69.53;101446.97;4967589;28;20241;-63
2022/04/03 01:14:38;;;;;;;6.47;2.97;;;;;;;-0.34;70.11;101447.59;4966568;28;20241;-61
2022/04/03 01:17:06;;;;;;;4.13;2.97;;;;;;;-0.41;69.76;101451.53;4966654;28;20261;-61
2022/04/03 01:19:32;;;;;;;2.53;2.33;;;;;;;-0.38;69.58;101450.84;4962294;28;20233;-62
2022/04/03 01:21:59;;;;;;;5.63;4.00;;;;;;;-0.35;69.40;101449.31;4970411;28;20238;-61
2022/04/03 01:24:26;;;;;;;3.97;2.77;;;;;;;-0.36;70.22;101449.19;4969352;28;20970;-61
2022/04/03 01:26:54;;;;;;;3.03;2.77;;;;;;;-0.25;70.08;101453.25;4966341;28;20273;-61
2022/04/03 01:29:21;;;;;;;6.17;2.70;;;;;;;-0.33;70.04;101449.38;4964806;28;20285;-61
2022/04/03 01:31:48;;;;;;;3.10;2.80;;;;;;;-0.38;70.39;101456.00;4966363;28;20790;-61
2022/04/03 01:34:15;;;;;;;3.13;2.83;;;;;;;-0.42;70.55;101454.03;4955982;28;20238;-61
2022/04/03 01:36:41;;;;;;;4.03;2.50;;;;;;;-0.46;70.40;101454.66;4965940;28;20241;-61
2022/04/03 01:39:09;;;;;;;3.20;2.90;;;;;;;-0.51;71.07;101450.13;4960288;28;20233;-61
2022/04/03 01:41:36;;;;;;;6.63;3.50;;;;;;;-0.53;70.95;101448.28;4964948;28;20269;-61
2022/04/03 01:44:04;;;;;;;2.63;2.43;;;;;;;-0.53;71.17;101456.00;4957419;28;20300;-61
2022/04/03 01:46:31;;;;;;;3.70;2.30;;;;;;;-0.62;71.39;101450.38;4965552;28;20234;-63
2022/04/03 01:48:57;;;;;;;4.97;2.50;;;;;;;-0.62;71.75;101448.66;4966067;28;20726;-62
2022/04/03 01:51:24;;;;;;;3.50;2.40;;;;;;;-0.62;71.28;101451.25;4975886;28;20638;-63
2022/04/03 01:53:50;;;;;;;4.03;3.03;;;;;;;-0.61;71.48;101447.84;4958598;28;20360;-63
2022/04/03 01:56:17;;;;;;;6.40;2.70;;;;;;;-0.62;71.62;101442.63;4956371;28;20245;-62
2022/04/03 01:58:43;;;;;;;3.13;2.57;;;;;;;-0.66;71.35;101451.88;4960868;28;20763;-61
2022/04/03 02:01:13;;;;;;;3.07;2.80;;;;;;;-0.60;71.93;101444.47;4964201;28;20237;-62
2022/04/03 02:03:40;;;;;;;3.10;2.80;;;;;;;-0.53;71.68;101443.13;4961976;28;20277;-60
2022/04/03 02:06:07;;;;;;;2.57;2.37;;;;;;;-0.47;71.49;101442.56;4965678;28;20234;-61
2022/04/03 02:08:34;;;;;;;3.03;2.67;;;;;;;-0.50;71.26;101441.59;4965654;28;20261;-60
2022/04/03 02:11:00;;;;;;;3.23;2.93;;;;;;;-0.42;71.20;101439.47;4966246;28;20301;-60
2022/04/03 02:13:27;;;;;;;5.43;3.37;;;;;;;-0.40;71.01;101443.00;4962122;28;20240;-61
2022/04/03 02:15:53;;;;;;;2.63;2.40;;;;;;;-0.31;70.75;101443.50;4965004;28;20233;-61
2022/04/03 02:18:21;;;;;;;3.53;2.53;;;;;;;-0.19;70.17;101448.41;4965144;28;20289;-60
2022/04/03 02:20:47;;;;;;;3.40;3.00;;;;;;;-0.19;70.32;101438.09;4965856;28;20245;-60
2022/04/03 02:23:14;;;;;;;4.67;2.80;;;;;;;-0.15;70.12;101440.03;4966188;28;20233;-61
2022/04/03 02:25:40;;;;;;;3.37;3.07;;;;;;;-0.17;70.11;101446.81;4974840;28;20261;-60
2022/04/03 02:28:09;;;;;;;4.17;2.70;;;;;;;-0.11;69.41;101441.97;4966631;28;20762;-62
2022/04/03 02:30:35;;;;;;;3.33;2.63;;;;;;;-0.06;68.86;101445.69;4964615;28;20779;-60
2022/04/03 02:33:02;;;;;;;4.30;2.90;;;;;;;-0.05;68.64;101442.31;4966048;28;20723;-61
2022/04/03 02:35:30;;;;;;;3.70;2.63;;;;;;;-0.05;69.00;101442.31;4964256;28;20245;-61
2022/04/03 02:37:56;;;;;;;2.87;2.30;;;;;;;-0.01;68.40;101444.22;4966366;28;20241;-61
2022/04/03 02:40:22;;;;;;;5.70;2.50;;;;;;;-0.01;69.03;101441.66;4965088;28;20246;-62
2022/04/03 02:42:50;;;;;;;6.23;2.73;;;;;;;0.09;68.77;101439.56;4965659;28;20249;-60
2022/04/03 02:45:16;;;;;;;5.40;2.50;;;;;;;0.06;68.44;101434.25;4961049;28;20600;-60
2022/04/03 02:47:49;;;;;;;5.10;2.70;;;;;;;0.07;68.25;101436.91;4965932;28;20242;-61
2022/04/03 02:50:16;;;;;;;3.47;2.97;;;;;;;0.09;68.53;101434.41;4966277;28;20473;-62
2022/04/03 02:52:44;;;;;;;3.50;3.17;;;;;;;0.09;68.32;101439.56;4964699;28;20233;-60
2022/04/03 02:55:10;;;;;;;2.80;2.43;;;;;;;0.06;68.94;101429.09;4964035;28;20236;-62
2022/04/03 02:57:37;;;;;;;3.10;2.83;;;;;;;0.04;68.66;101433.28;4965759;28;20317;-61
2022/04/03 03:00:04;;;;;;;3.13;2.83;;;;;;;-0.01;68.88;101433.91;4963378;28;20241;-57
2022/04/03 03:02:31;;;;;;;4.27;3.00;;;;;;;0.07;68.68;101417.94;4963732;28;20230;-62
2022/04/03 03:04:57;;;;;;;2.83;2.47;;;;;;;0.08;68.51;101432.66;4958439;28;20233;-60
2022/04/03 03:07:24;;;;;;;3.13;2.73;;;;;;;0.08;68.09;101422.31;4965150;28;20719;-62
2022/04/03 03:09:52;;;;;;;2.70;2.50;;;;;;;0.12;68.43;101435.44;4962980;28;20255;-60
2022/04/03 03:12:18;;;;;;;3.53;2.80;;;;;;;-0.06;68.21;101425.06;4968781;28;20241;-61
2022/04/03 03:14:44;;;;;;;5.00;3.80;;;;;;;0.04;68.31;101426.44;4968335;28;20254;-60
2022/04/03 03:17:11;;;;;;;5.87;3.80;;;;;;;0.01;67.98;101425.38;4968698;28;20233;-60
2022/04/03 03:19:37;;;;;;;3.30;3.00;;;;;;;0.02;68.16;101424.56;4965507;28;20301;-61
2022/04/03 03:22:04;;;;;;;4.77;4.03;;;;;;;-0.02;67.95;101426.97;4969235;28;20252;-62
2022/04/03 03:24:30;;;;;;;4.87;3.73;;;;;;;-0.03;68.16;101425.22;4967604;28;20241;-61
2022/04/03 03:26:58;;;;;;;7.13;3.83;;;;;;;0.01;67.92;101425.38;4968446;28;20268;-62
2022/04/03 03:29:24;;;;;;;3.93;3.50;;;;;;;0.05;67.94;101419.56;4965513;28;20794;-62
2022/04/03 03:31:51;;;;;;;6.90;5.27;;;;;;;0.14;67.41;101422.59;4968409;28;20241;-60
2022/04/03 03:34:17;;;;;;;7.90;5.40;;;;;;;0.15;67.81;101425.28;4967328;28;20319;-61
2022/04/03 03:36:43;;;;;;;9.77;7.40;;;;;;;0.17;67.46;101425.34;4967930;28;20246;-60
2022/04/03 03:39:12;;;;;;;5.03;4.53;;;;;;;0.19;66.55;101421.19;4967992;28;20658;-60
2022/04/03 03:41:38;;;;;;;4.70;3.50;;;;;;;0.26;67.03;101428.44;4965288;28;20234;-61
2022/04/03 03:44:10;;;;;;;4.93;3.57;;;;;;;0.17;66.02;101422.78;4968633;28;20234;-60
2022/04/03 03:46:36;;;;;;;3.47;3.17;;;;;;;0.19;66.82;101423.75;4962347;28;20640;-61
2022/04/03 03:49:03;;;;;;;3.43;3.13;;;;;;;0.22;66.64;101426.50;4968577;28;20328;-61
2022/04/03 03:51:29;;;;;;;3.57;2.90;;;;;;;0.21;66.48;101420.44;4969677;28;20254;-61
2022/04/03 03:53:55;;;;;;;5.20;3.20;;;;;;;0.29;66.17;101425.13;4971612;28;20244;-61
2022/04/03 03:56:22;;;;;;;3.70;3.00;;;;;;;0.24;66.25;101430.03;4961516;28;20233;-63
2022/04/03 03:58:48;;;;;;;3.10;2.80;;;;;;;0.27;65.88;101427.59;4968074;28;20241;-62
2022/04/03 04:01:16;;;;;;;5.00;4.50;;;;;;;0.29;65.34;101426.00;4961593;28;20862;-61
2022/04/03 04:03:42;;;;;;;2.53;2.33;;;;;;;0.31;65.38;101426.94;4967898;28;20748;-60
2022/04/03 04:06:09;;;;;;;3.23;2.93;;;;;;;0.25;65.07;101434.41;4965980;28;20241;-61
2022/04/03 04:08:35;;;;;;;3.33;2.90;;;;;;;0.14;64.96;101427.78;4973740;28;20242;-62
2022/04/03 04:11:01;;;;;;;3.73;3.17;;;;;;;0.17;65.61;101431.41;4966769;28;20270;-61
2022/04/03 04:13:28;;;;;;;3.53;3.20;;;;;;;0.17;65.64;101433.97;4967287;28;20323;-61
2022/04/03 04:15:55;;;;;;;4.30;3.40;;;;;;;0.19;65.41;101442.72;4960943;28;20661;-62
2022/04/03 04:18:22;;;;;;;4.97;2.87;;;;;;;0.22;65.12;101435.13;4965914;28;20239;-61
2022/04/03 04:20:50;;;;;;;4.30;3.57;;;;;;;0.24;64.55;101430.03;4964367;28;20246;-60
2022/04/03 04:23:17;;;;;;;4.67;3.57;;;;;;;0.28;64.67;101433.66;4964636;28;20751;-61
2022/04/03 04:25:43;;;;;;;8.03;3.80;;;;;;;0.33;64.33;101440.84;4967270;28;20257;-62
2022/04/03 04:28:09;;;;;;;3.93;3.50;;;;;;;0.43;62.25;101437.94;4981696;28;20241;-61
2022/04/03 04:30:37;;;;;;;5.87;3.07;;;;;;;0.42;62.31;101438.75;4966475;28;20620;-60
2022/04/03 04:33:03;;;;;;;4.93;3.13;;;;;;;0.44;62.52;101429.38;4967971;28;20778;-62
2022/04/03 04:35:31;;;;;;;3.63;2.97;;;;;;;0.23;62.78;101433.44;4964360;28;20234;-60
2022/04/03 04:37:57;;;;;;;4.50;2.80;;;;;;;0.14;63.85;101444.19;4965891;28;20280;-61
2022/04/03 04:40:24;;;;;;;4.13;3.50;;;;;;;0.13;63.53;101438.91;4965140;28;20237;-61
2022/04/03 04:42:50;;;;;;;4.23;2.87;;;;;;;0.12;63.58;101437.16;4968951;28;20304;-62
2022/04/03 04:45:17;;;;;;;4.07;3.37;;;;;;;0.04;63.71;101435.88;4967717;28;20258;-62
2022/04/03 04:47:43;;;;;;;3.57;3.27;;;;;;;0.11;63.49;101437.97;4966800;28;20324;-62
2022/04/03 04:50:11;;;;;;;4.73;3.27;;;;;;;0.10;63.82;101441.34;4965305;28;20303;-62
2022/04/03 04:52:40;;;;;;;3.80;3.20;;;;;;;0.02;63.04;101433.19;4971437;28;20771;-60
2022/04/03 04:55:08;;;;;;;4.50;3.17;;;;;;;-0.02;63.48;101442.47;4964052;28;20234;-60
2022/04/03 04:57:35;;;;;;;3.77;3.37;;;;;;;0.04;63.62;101435.88;4964297;28;20227;-57
2022/04/03 05:00:01;;;;;;;5.20;3.50;;;;;;;0.00;63.42;101437.41;4967306;28;20253;-61
2022/04/03 05:02:28;;;;;;;3.53;3.03;;;;;;;0.04;63.43;101441.91;4953400;28;20306;-61
2022/04/03 05:04:54;;;;;;;3.30;2.80;;;;;;;0.09;62.40;101450.78;4958661;28;20256;-61
2022/04/03 05:07:22;;;;;;;3.70;3.10;;;;;;;0.13;62.55;101451.81;4961057;28;20264;-61
2022/04/03 05:09:50;;;;;;;3.57;2.60;;;;;;;0.12;62.58;101455.22;4966517;28;20231;-61
2022/04/03 05:12:17;;;;;;;3.57;3.20;;;;;;;0.07;62.03;101456.66;4963711;28;20361;-60
2022/04/03 05:14:43;;;;;;;2.97;2.77;;;;;;;-0.03;62.32;101458.78;4966583;28;20233;-60
2022/04/03 05:17:09;;;;;;;3.43;2.80;;;;;;;0.02;62.19;101458.13;4964569;28;20305;-60
2022/04/03 05:19:36;;;;;;;5.60;2.80;;;;;;;0.01;62.49;101456.34;4968815;28;20233;-60
2022/04/03 05:22:03;;;;;;;3.77;2.70;;;;;;;0.03;62.32;101459.88;4962290;28;20253;-62
2022/04/03 05:24:29;;;;;;;2.97;2.70;;;;;;;0.13;62.54;101462.16;4965557;28;20229;-61
2022/04/03 05:26:57;;;;;;;3.30;2.40;;;;;;;0.19;62.08;101467.66;4958405;28;20242;-60
2022/04/03 05:29:23;;;;;;;3.27;2.97;;;;;;;0.27;61.87;101466.34;4965450;28;20316;-61
2022/04/03 05:31:49;;;;;;;3.13;2.80;;;;;;;0.32;61.03;101462.31;4965548;28;20235;-62
2022/04/03 05:34:16;;;;;;;2.83;2.63;;;;;;;0.36;60.07;101465.94;4966161;28;20261;-60
2022/04/03 05:36:42;;;;;;;3.07;2.77;;;;;;;0.30;60.43;101463.94;4964017;28;20672;-61
2022/04/03 05:39:09;;;;;;;2.60;2.40;;;;;;;0.36;59.82;101465.94;4966296;28;20824;-62
2022/04/03 05:41:35;;;;;;;3.97;2.70;;;;;;;0.46;59.81;101465.63;4962349;28;20241;-58
2022/04/03 05:44:03;;;;;;;3.73;2.97;;;;;;;0.31;60.08;101463.09;4965534;28;20844;-62
2022/04/03 05:46:30;;;;;;;3.17;2.87;;;;;;;0.40;60.43;101467.88;4965528;28;20676;-61
2022/04/03 05:48:57;;;;;;;3.07;2.50;;;;;;;0.42;59.94;101471.41;4964676;28;20258;-61
2022/04/03 05:51:23;;;;;;;7.80;2.70;;;;;;;0.41;60.88;101470.53;4967034;28;20238;-61
2022/04/03 05:53:49;;;;;;;3.53;2.53;;;;;;;0.48;60.92;101469.16;4965744;28;20241;-60
2022/04/03 05:56:16;;;;;;;4.00;2.97;;;;;;;0.40;60.66;101463.59;4959378;28;20292;-62
2022/04/03 05:58:42;;;;;;;3.80;3.33;;;;;;;0.42;60.95;101469.75;4964924;28;20237;-60
2022/04/03 06:01:10;;;;;;;3.00;2.57;;;;;;;0.47;61.01;101475.13;4959179;28;20264;-61
2022/04/03 06:03:36;;;;;;;3.27;2.97;;;;;;;0.35;60.70;101471.91;4965759;28;20248;-61
2022/04/03 06:06:03;;;;;;;3.07;2.77;;;;;;;0.45;60.87;101477.63;4960895;28;20276;-61
2022/04/03 06:08:29;;;;;;;5.80;2.97;;;;;;;0.39;60.96;101479.91;4971793;28;20257;-63
2022/04/03 06:10:55;;;;;;;2.97;2.63;;;;;;;0.41;61.43;101475.69;4967186;28;20253;-61
2022/04/03 06:13:24;;;;;;;4.43;3.53;;;;;;;0.50;60.68;101479.59;4956153;28;20297;-62
2022/04/03 06:15:50;;;;;;;5.17;2.97;;;;;;;0.29;60.63;101469.03;4963059;28;20401;-61
2022/04/03 06:18:18;;;;;;;4.00;3.43;;;;;;;0.39;60.73;101476.44;4966225;28;20309;-63
2022/04/03 06:51:02;;;;;;;4.43;3.23;;;;;;;0.92;60.25;101476.59;4972955;28;20327;-61
2022/04/03 06:53:29;;;;;;;4.77;2.70;;;;;;;1.04;60.12;101483.16;4971693;28;20241;-61
2022/04/03 06:56:23;;;;;;;2.73;2.53;;;;;;;1.02;59.71;101477.03;4969133;28;20265;-61
2022/04/03 07:02:16;;;;;;;3.00;2.63;;;;;;;1.07;58.95;101480.72;4966491;28;20283;-61
2022/04/03 07:04:56;;;;;;;6.23;2.90;;;;;;;1.05;59.43;101474.59;4966872;28;20260;-59
2022/04/03 07:18:08;;;;;;;2.87;2.57;;;;;;;1.63;58.61;101480.88;4960742;28;20252;-60
2022/04/03 07:20:49;;;;;;;3.83;3.00;;;;;;;1.81;57.40;101487.72;4975894;28;20477;-60
2022/04/03 07:23:50;;;;;;;4.23;2.50;;;;;;;2.01;56.90;101488.66;4968984;28;20319;-60
2022/04/03 07:27:14;;;;;;;2.70;2.30;;;;;;;2.16;56.00;101491.94;4964360;28;20237;-60
2022/04/03 07:29:40;;;;;;;4.37;2.17;;;;;;;2.25;55.93;101497.53;4966365;28;20716;-59
2022/04/03 07:32:14;;;;;;;5.33;2.83;;;;;;;2.48;54.69;101497.66;4967618;28;20237;-59
2022/04/03 07:34:41;;;;;;;3.50;2.60;;;;;;;2.55;54.97;101500.59;4969646;28;20238;-60
2022/04/03 07:37:08;;;;;;;3.03;2.80;;;;;;;2.62;55.26;101509.50;4965351;28;20286;-59
2022/04/03 07:40:06;;;;;;;3.03;2.60;;;;;;;2.77;53.71;101507.59;4968384;28;20707;-59
2022/04/03 07:42:33;;;;;;;2.37;2.17;;;;;;;2.93;53.36;101503.06;4965757;28;20237;-60
2022/04/03 07:44:59;;;;;;;4.57;2.73;;;;;;;3.01;52.54;101501.66;4968729;28;20241;-59
2022/04/03 07:47:26;;;;;;;4.10;2.27;;;;;;;3.10;51.83;101507.25;4962218;28;20724;-60
2022/04/03 07:49:53;;;;;;;3.43;2.30;;;;;;;3.07;52.31;101512.31;4963996;28;20242;-59
2022/04/03 07:52:20;;;;;;;2.23;1.73;;;;;;;3.05;52.83;101503.56;4964205;28;20306;-60
2022/04/03 07:54:46;;;;;;;3.10;2.47;;;;;;;3.06;52.14;101505.34;4967310;28;20268;-60
2022/04/03 07:57:13;;;;;;;3.13;2.27;;;;;;;3.18;52.92;101504.97;4967311;28;20248;-60
2022/04/03 07:59:39;;;;;;;1.73;1.63;;;;;;;3.20;51.97;101504.22;4965138;28;20737;-60
2022/04/03 08:02:06;;;;;;;1.93;1.70;;;;;;;3.20;52.76;101499.03;4968705;28;20873;-62
2022/04/03 08:04:32;;;;;;;2.40;1.73;;;;;;;3.03;53.00;101492.25;4964830;28;20229;-61
2022/04/03 08:07:00;;;;;;;1.80;1.70;;;;;;;3.00;52.99;101494.72;4967937;28;20752;-61
2022/04/03 08:09:26;;;;;;;2.37;1.80;;;;;;;3.20;53.27;101493.84;4965507;28;20300;-61
2022/04/03 08:11:53;;;;;;;2.57;2.00;;;;;;;3.21;53.07;101482.63;4965529;28;20261;-62
2022/04/03 08:14:19;;;;;;;2.27;2.07;;;;;;;3.31;53.11;101487.38;4957007;28;20241;-62
2022/04/03 08:16:46;;;;;;;2.50;1.60;;;;;;;3.33;52.60;101480.53;4967241;28;20744;-62
2022/04/03 08:19:13;;;;;;;3.03;1.77;;;;;;;3.49;52.09;101482.03;4960857;28;20239;-63
2022/04/03 08:21:39;;;;;;;2.10;1.90;;;;;;;3.57;52.26;101479.72;4985190;28;20907;-61
2022/04/03 08:24:07;;;;;;;2.70;2.20;;;;;;;3.71;51.29;101483.75;4967012;28;20237;-62
2022/04/03 08:26:34;;;;;;;2.83;1.50;;;;;;;3.88;49.92;101475.72;4966706;28;20742;-61
2022/04/03 08:29:00;;;;;;;2.67;2.03;;;;;;;3.99;49.49;101490.00;4961149;28;20262;-63
2022/04/03 08:31:33;;;;;;;1.70;1.60;;;;;;;4.02;50.08;101482.31;4966066;28;20305;-62
2022/04/03 08:34:00;;;;;;;2.17;1.80;;;;;;;4.30;49.16;101482.50;4966023;28;20261;-64
2022/04/03 08:36:41;;;;;;;1.60;1.50;;;;;;;4.34;48.38;101490.44;4966343;28;20260;-63
2022/04/03 08:42:31;;;;;;;2.10;1.90;;;;;;;5.02;46.70;101487.66;4973911;28;20285;-60
2022/04/03 08:45:27;;;;;;;4.00;1.60;;;;;;;5.23;46.52;101484.88;4960382;28;20341;-60
2022/04/03 09:00:49;;;;;;;2.00;1.90;;;;;;;5.65;41.94;101479.25;4922733;28;20246;-61
2022/04/03 09:03:15;;;;;;;2.87;1.70;;;;;;;5.39;42.73;101482.75;4935607;28;20233;-61
2022/04/03 09:05:48;;;;;;;1.70;1.60;;;;;;;5.16;44.23;101484.59;4935991;28;20242;-61
2022/04/03 09:08:14;;;;;;;2.10;1.77;;;;;;;5.28;43.55;101478.94;4929459;28;20761;-62
2022/04/03 09:11:05;;;;;;;5.87;1.90;;;;;;;5.34;42.85;101473.94;4945721;28;20243;-64
2022/04/03 09:13:38;;;;;;;5.90;2.63;;;;;;;5.36;43.45;101477.44;4944962;29;20681;-65
2022/04/03 09:16:07;;;;;;;4.60;2.50;;;;;;;5.49;41.45;101475.28;4943563;29;20233;-63
2022/04/03 09:18:44;;;;;;;2.50;1.80;;;;;;;5.07;42.69;101479.09;4938528;29;20740;-61
2022/04/03 09:21:23;;;;;;;4.20;2.40;;;;;;;5.38;41.92;101473.19;4941962;28;20235;-61
2022/04/03 09:24:00;;;;;;;5.20;4.03;;;;;;;5.48;42.04;101472.66;4937134;28;20240;-62
2022/04/03 09:26:46;;;;;;;4.57;3.40;;;;;;;5.56;41.36;101467.66;4932061;28;20251;-62
2022/04/03 09:29:14;;;;;;;3.23;2.20;;;;;;;5.83;40.81;101465.03;4932118;28;20677;-62
2022/04/03 09:31:51;;;;;;;2.43;1.93;;;;;;;5.78;40.91;101461.38;4939292;28;20290;-60
2022/04/03 09:34:21;;;;;;;7.30;4.30;;;;;;;5.33;41.39;101462.59;4931228;28;20701;-61
2022/04/03 09:36:56;;;;;;;2.37;1.97;;;;;;;5.57;41.40;101454.69;4928661;29;20232;-62
2022/04/03 09:39:25;;;;;;;1.93;1.40;;;;;;;5.67;41.91;101456.72;4928286;28;20613;-62
2022/04/03 09:41:57;;;;;;;2.13;1.90;;;;;;;5.74;39.64;101456.06;4927862;28;20258;-62
2022/04/03 09:44:28;;;;;;;3.37;2.67;;;;;;;5.94;37.89;101448.03;4937745;28;20318;-61
2022/04/03 09:47:16;;;;;;;2.17;1.67;;;;;;;5.99;37.64;101451.63;4943410;28;20709;-62
2022/04/03 09:49:57;;;;;;;1.83;1.70;;;;;;;5.67;38.51;101454.13;4927328;28;20236;-61
2022/04/03 09:52:41;;;;;;;1.90;1.70;;;;;;;5.62;37.67;101440.09;4938104;28;20245;-61
2022/04/03 09:55:09;;;;;;;2.47;2.27;;;;;;;5.77;37.61;101444.00;4942668;28;20234;-60
2022/04/03 09:57:35;;;;;;;6.43;4.07;;;;;;;5.96;37.74;101446.31;4943769;28;20235;-61
2022/04/03 10:00:02;;;;;;;4.33;3.93;;;;;;;5.90;37.48;101440.91;4926987;29;20342;-61
2022/04/03 10:02:29;;;;;;;2.43;2.23;;;;;;;5.30;38.12;101439.09;4930107;29;20834;-61
2022/04/03 10:04:56;;;;;;;2.00;1.80;;;;;;;5.37;38.55;101441.06;4928949;29;20259;-61
2022/04/03 10:07:22;;;;;;;2.23;1.67;;;;;;;5.74;38.40;101434.34;4937635;29;20238;-61
2022/04/03 10:09:51;;;;;;;2.13;1.60;;;;;;;5.92;38.24;101440.13;4937837;29;20235;-64
2022/04/03 10:12:19;;;;;;;1.70;1.60;;;;;;;5.99;38.05;101436.00;4935722;29;20292;-62
2022/04/03 10:14:46;;;;;;;2.17;2.03;;;;;;;6.11;38.04;101436.34;4938750;29;20243;-61
2022/04/03 10:17:13;;;;;;;3.33;1.70;;;;;;;6.14;38.16;101436.44;4935163;29;20611;-62
2022/04/03 10:19:41;;;;;;;3.53;2.00;;;;;;;6.18;38.08;101420.03;4933150;28;20888;-64
2022/04/03 10:22:11;;;;;;;2.47;1.43;;;;;;;6.16;37.58;101429.53;4937277;29;20240;-65
2022/04/03 10:24:39;;;;;;;1.77;1.67;;;;;;;6.44;35.91;101422.47;4933898;29;20244;-64
2022/04/03 10:27:08;;;;;;;2.90;1.60;;;;;;;6.33;36.35;101423.91;4928395;29;20314;-66
2022/04/03 10:29:38;;;;;;;2.00;1.57;;;;;;;6.20;35.96;101426.16;4934409;29;20234;-66
2022/04/03 10:32:06;;;;;;;1.70;1.60;;;;;;;6.09;36.28;101419.78;4940843;29;20231;-66
2022/04/03 10:34:47;;;;;;;2.00;1.80;;;;;;;6.19;35.67;101418.31;4941483;29;20318;-66
2022/04/03 10:37:28;;;;;;;2.53;1.60;;;;;;;5.84;35.12;101417.28;4933521;29;20236;-66
2022/04/03 10:39:55;;;;;;;3.47;2.23;;;;;;;5.86;35.50;101418.19;4929489;29;20584;-66
2022/04/03 10:42:26;;;;;;;2.97;1.60;;;;;;;5.89;35.36;101410.47;4932619;29;20314;-68
2022/04/03 10:45:20;;;;;;;3.23;2.13;;;;;;;6.05;35.32;101399.69;4936202;29;20775;-66
2022/04/03 10:47:48;;;;;;;1.60;1.50;;;;;;;6.63;34.37;101388.22;4932172;29;20310;-65
2022/04/03 10:50:16;;;;;;;2.10;1.90;;;;;;;6.80;34.42;101383.38;4934567;29;20239;-65
2022/04/03 10:52:58;;;;;;;2.13;1.93;;;;;;;6.83;33.99;101388.69;4935937;29;20247;-67
2022/04/03 10:55:30;;;;;;;1.80;1.67;;;;;;;6.44;34.49;101388.56;4937028;29;20775;-66
2022/04/03 10:58:02;;;;;;;2.13;1.90;;;;;;;6.43;34.68;101385.09;4940517;29;20653;-66
2022/04/03 11:00:37;;;;;;;2.50;1.70;;;;;;;6.19;34.72;101377.47;4928088;28;20329;-65
2022/04/03 11:03:31;;;;;;;3.37;1.90;;;;;;;6.02;35.17;101381.34;4928431;28;20231;-67
2022/04/03 11:06:18;;;;;;;1.83;1.73;;;;;;;6.06;35.64;101377.97;4932184;29;20345;-65
2022/04/03 11:08:55;;;;;;;3.77;1.70;;;;;;;6.37;35.22;101371.00;4924328;29;20759;-66
2022/04/03 11:11:31;;;;;;;2.30;2.10;;;;;;;6.66;34.45;101364.78;4927919;28;20314;-65
2022/04/03 11:13:58;;;;;;;1.83;1.63;;;;;;;6.90;34.65;101358.41;4933632;28;20334;-66
2022/04/03 11:17:21;;;;;;;1.83;1.73;;;;;;;7.13;33.73;101365.06;4928524;28;20240;-66
2022/04/03 11:19:59;;;;;;;2.70;1.80;;;;;;;7.07;33.13;101362.28;4927663;29;20277;-65
2022/04/03 11:22:33;;;;;;;3.30;2.30;;;;;;;6.89;33.53;101330.56;4935220;28;20234;-65
2022/04/03 11:25:00;;;;;;;2.40;1.77;;;;;;;6.64;34.07;101345.63;4932319;28;20306;-66
2022/04/03 11:27:27;;;;;;;2.03;1.70;;;;;;;6.94;33.61;101339.34;4934637;28;20254;-66
2022/04/03 11:29:54;;;;;;;3.13;2.20;;;;;;;6.80;33.95;101340.75;4930388;28;20248;-68
2022/04/03 11:32:41;;;;;;;2.37;2.10;;;;;;;6.92;34.48;101341.06;4936460;28;20231;-68
2022/04/03 11:35:09;;;;;;;4.13;2.27;;;;;;;7.18;34.37;101334.69;4933199;28;20326;-65
2022/04/03 11:37:37;;;;;;;2.63;2.03;;;;;;;7.21;34.28;101326.06;4940687;28;20235;-65
2022/04/03 11:40:07;;;;;;;1.60;1.50;;;;;;;7.25;34.06;101330.50;4928401;29;20298;-66
2022/04/03 11:42:33;;;;;;;2.40;2.20;;;;;;;7.02;34.34;101323.88;4938212;29;20254;-65
2022/04/03 11:45:00;;;;;;;5.73;1.80;;;;;;;6.98;34.84;101320.31;4932202;29;20243;-64
2022/04/03 11:47:26;;;;;;;1.73;1.63;;;;;;;7.15;34.67;101326.78;4937041;29;20906;-65
2022/04/03 11:50:07;;;;;;;3.97;1.93;;;;;;;7.39;34.14;101317.75;4936060;29;20247;-65
2022/04/03 11:52:35;;;;;;;3.20;1.73;;;;;;;7.82;33.37;101305.53;4930686;29;20793;-64
2022/04/03 11:55:08;;;;;;;2.50;2.30;;;;;;;7.85;33.11;101308.22;4938173;29;20227;-64
2022/04/03 11:57:35;;;;;;;2.10;1.90;;;;;;;7.86;33.47;101304.75;4933887;29;20231;-65
2022/04/03 12:00:02;;;;;;;6.40;2.47;;;;;;;7.70;34.09;101306.19;4934250;29;20252;-66
2022/04/03 12:02:28;;;;;;;1.80;1.70;;;;;;;7.60;33.93;101307.72;4935213;29;20251;-65
2022/04/03 12:04:56;;;;;;;1.57;1.47;;;;;;;7.52;34.53;101303.22;4937011;28;20235;-65
2022/04/03 12:07:23;;;;;;;1.93;1.70;;;;;;;7.46;35.06;101303.94;4933730;28;21127;-65
2022/04/03 12:09:49;;;;;;;1.47;1.37;;;;;;;7.25;35.56;101303.50;4929995;28;20295;-65
2022/04/03 12:12:24;;;;;;;5.77;2.00;;;;;;;7.05;36.11;101301.31;4936585;28;20334;-64
2022/04/03 12:14:50;;;;;;;2.23;2.03;;;;;;;7.12;36.03;101298.00;4930585;28;20725;-64
2022/04/03 12:17:18;;;;;;;1.63;1.53;;;;;;;7.38;35.91;101300.31;4933312;28;20887;-65
2022/04/03 12:19:47;;;;;;;2.20;2.00;;;;;;;7.58;35.08;101292.84;4937158;28;20365;-67
2022/04/03 12:22:14;;;;;;;1.77;1.20;;;;;;;7.68;34.29;101283.47;4937604;28;20445;-66
2022/04/03 12:24:43;;;;;;;1.50;1.40;;;;;;;7.48;34.35;101283.97;4931845;28;20259;-66
2022/04/03 12:27:12;;;;;;;1.77;1.50;;;;;;;7.22;35.04;101279.94;4933203;28;20776;-67
2022/04/03 12:29:41;;;;;;;3.23;1.73;;;;;;;7.18;35.54;101277.25;4940239;28;20243;-66
2022/04/03 12:32:09;;;;;;;2.40;1.80;;;;;;;7.02;35.20;101280.41;4931695;28;20246;-65
2022/04/03 12:34:37;;;;;;;3.83;3.10;;;;;;;7.30;35.48;101275.75;4935500;28;20262;-66
2022/04/03 12:37:04;;;;;;;2.27;1.87;;;;;;;7.37;35.27;101265.47;4942417;28;20223;-67
2022/04/03 12:39:33;;;;;;;1.43;1.33;;;;;;;7.70;34.96;101266.09;4929846;28;20733;-66
2022/04/03 12:42:12;;;;;;;4.13;1.30;;;;;;;7.50;35.11;101263.09;4931997;28;20255;-66